Time;durP1;ratioP1;P1;durP2;ratioP2;P2;SDS_P1;SDS_P2;PMS_P1;PMS_P2;Temp;Humidity;BMP_temperature;BMP_pressure;BME280_temperature;BME280_humidity;BME280_pressure;Samples;Min_cycle;Max_cycle;Signal;HPM_P1;HPM_P2
2021/06/03 00:00:49;;;;;;;0.00;0.00;;;;;;;;;;5067350;28;20081;-74
2021/06/03 00:03:14;;;;;;;0.00;0.00;;;;;;;;;;5093852;28;20103;-74
2021/06/03 00:05:41;;;;;;;0.00;0.00;;;;;;;;;;5065042;28;20560;-74
2021/06/03 00:08:06;;;;;;;0.00;0.00;;;;;;;;;;5093327;28;20024;-73
2021/06/03 00:10:32;;;;;;;0.00;0.00;;;;;;;;;;5058738;28;20476;-74
2021/06/03 00:12:57;;;;;;;0.00;0.00;;;;;;;;;;5091480;28;20286;-74
2021/06/03 00:15:22;;;;;;;0.00;0.00;;;;;;;;;;5092971;28;20099;-74
2021/06/03 00:17:47;;;;;;;0.00;0.00;;;;;;;;;;5075301;28;20278;-74
2021/06/03 00:20:14;;;;;;;0.00;0.00;;;;;;;;;;5058117;28;20036;-73
2021/06/03 00:22:39;;;;;;;0.00;0.00;;;;;;;;;;5093076;28;20091;-73
2021/06/03 00:25:05;;;;;;;0.00;0.00;;;;;;;;;;5058041;28;20036;-73
2021/06/03 00:27:30;;;;;;;0.00;0.00;;;;;;;;;;5057921;28;20016;-73
2021/06/03 00:29:55;;;;;;;0.00;0.00;;;;;;;;;;5058862;28;20031;-73
2021/06/03 00:32:20;;;;;;;0.00;0.00;;;;;;;;;;5076113;28;20058;-73
2021/06/03 00:34:46;;;;;;;0.00;0.00;;;;;;;;;;5094357;28;20270;-73
2021/06/03 00:37:11;;;;;;;0.00;0.00;;;;;;;;;;5076645;28;20035;-73
2021/06/03 00:39:36;;;;;;;0.00;0.00;;;;;;;;;;5076320;28;20468;-73
2021/06/03 00:42:01;;;;;;;0.00;0.00;;;;;;;;;;5075662;28;20427;-72
2021/06/03 00:44:26;;;;;;;0.00;0.00;;;;;;;;;;5094260;28;20298;-72
2021/06/03 00:46:52;;;;;;;0.00;0.00;;;;;;;;;;5075577;28;20024;-72
2021/06/03 00:49:17;;;;;;;0.00;0.00;;;;;;;;;;5076310;28;20027;-73
2021/06/03 00:51:42;;;;;;;0.00;0.00;;;;;;;;;;5059195;28;20270;-72
2021/06/03 00:54:07;;;;;;;0.00;0.00;;;;;;;;;;5059286;28;20274;-72
2021/06/03 00:56:35;;;;;;;0.00;0.00;;;;;;;;;;5059011;28;20089;-73
2021/06/03 00:59:00;;;;;;;0.00;0.00;;;;;;;;;;5076227;28;20051;-73
2021/06/03 01:01:25;;;;;;;0.00;0.00;;;;;;;;;;5074877;28;20059;-73
2021/06/03 01:03:51;;;;;;;0.00;0.00;;;;;;;;;;5075053;28;20323;-72
2021/06/03 01:06:17;;;;;;;0.00;0.00;;;;;;;;;;5072214;28;20635;-72
2021/06/03 01:08:46;;;;;;;0.00;0.00;;;;;;;;;;5073639;28;20266;-73
2021/06/03 01:11:30;;;;;;;0.00;0.00;;;;;;;;;;5073891;28;20115;-72
2021/06/03 01:14:03;;;;;;;0.00;0.00;;;;;;;;;;5070062;28;20020;-72
2021/06/03 01:16:28;;;;;;;0.00;0.00;;;;;;;;;;5058301;28;20470;-72
2021/06/03 01:18:54;;;;;;;0.00;0.00;;;;;;;;;;5064877;28;20030;-72
2021/06/03 01:21:28;;;;;;;0.00;0.00;;;;;;;;;;5051910;28;20024;-72
2021/06/03 01:23:59;;;;;;;0.00;0.00;;;;;;;;;;5068059;28;20032;-73
2021/06/03 01:26:24;;;;;;;0.00;0.00;;;;;;;;;;5066808;28;20059;-72
2021/06/03 01:28:50;;;;;;;0.00;0.00;;;;;;;;;;5050275;28;20484;-73
2021/06/03 01:31:15;;;;;;;0.00;0.00;;;;;;;;;;5057104;28;20301;-72
2021/06/03 01:33:41;;;;;;;0.00;0.00;;;;;;;;;;5057676;28;20628;-72
2021/06/03 01:36:08;;;;;;;0.00;0.00;;;;;;;;;;5062014;28;20031;-72
2021/06/03 01:38:33;;;;;;;0.00;0.00;;;;;;;;;;5071926;28;20020;-72
2021/06/03 01:40:59;;;;;;;0.00;0.00;;;;;;;;;;5066620;28;20073;-72
2021/06/03 01:43:24;;;;;;;0.00;0.00;;;;;;;;;;5081337;28;20102;-72
2021/06/03 01:45:50;;;;;;;0.00;0.00;;;;;;;;;;5067703;28;20080;-72
2021/06/03 01:48:17;;;;;;;0.00;0.00;;;;;;;;;;5065743;28;20461;-72
2021/06/03 01:50:42;;;;;;;0.00;0.00;;;;;;;;;;5050758;28;20027;-72
2021/06/03 01:53:07;;;;;;;0.00;0.00;;;;;;;;;;5067732;28;20025;-72
2021/06/03 01:55:33;;;;;;;0.00;0.00;;;;;;;;;;5050246;28;20270;-73
2021/06/03 01:57:59;;;;;;;0.00;0.00;;;;;;;;;;5065549;28;20319;-72
2021/06/03 02:00:24;;;;;;;0.00;0.00;;;;;;;;;;5070073;28;20025;-72
2021/06/03 02:02:49;;;;;;;0.00;0.00;;;;;;;;;;5066926;28;20439;-72
2021/06/03 02:05:14;;;;;;;0.00;0.00;;;;;;;;;;5088940;28;20044;-71
2021/06/03 02:07:40;;;;;;;0.00;0.00;;;;;;;;;;5081555;28;20270;-72
2021/06/03 02:10:05;;;;;;;0.00;0.00;;;;;;;;;;5099636;28;20019;-72
2021/06/03 02:12:31;;;;;;;0.00;0.00;;;;;;;;;;5085286;28;20403;-72
2021/06/03 02:14:56;;;;;;;0.00;0.00;;;;;;;;;;5078488;28;20081;-71
2021/06/03 02:17:22;;;;;;;0.00;0.00;;;;;;;;;;5076927;28;20028;-72
2021/06/03 02:19:48;;;;;;;0.00;0.00;;;;;;;;;;5082320;28;20020;-72
2021/06/03 02:22:13;;;;;;;0.00;0.00;;;;;;;;;;5072498;28;20023;-72
2021/06/03 02:24:40;;;;;;;0.00;0.00;;;;;;;;;;5076910;28;20024;-72
2021/06/03 02:27:06;;;;;;;0.00;0.00;;;;;;;;;;5061808;28;20116;-72
2021/06/03 02:29:31;;;;;;;0.00;0.00;;;;;;;;;;5064656;28;20095;-72
2021/06/03 02:31:56;;;;;;;0.00;0.00;;;;;;;;;;5080856;28;20312;-72
2021/06/03 02:34:21;;;;;;;0.00;0.00;;;;;;;;;;5054717;28;20028;-72
2021/06/03 02:36:46;;;;;;;0.00;0.00;;;;;;;;;;5064108;28;20282;-72
2021/06/03 02:39:12;;;;;;;0.00;0.00;;;;;;;;;;5066824;28;20301;-72
2021/06/03 02:41:37;;;;;;;0.00;0.00;;;;;;;;;;5071999;28;20366;-72
2021/06/03 02:44:02;;;;;;;0.00;0.00;;;;;;;;;;5101326;28;20019;-71
2021/06/03 02:46:27;;;;;;;0.00;0.00;;;;;;;;;;5083568;28;20280;-71
2021/06/03 02:48:52;;;;;;;0.00;0.00;;;;;;;;;;5073674;28;20025;-71
2021/06/03 02:51:18;;;;;;;0.00;0.00;;;;;;;;;;5063793;28;20263;-71
2021/06/03 02:53:46;;;;;;;0.00;0.00;;;;;;;;;;5077789;28;20609;-72
2021/06/03 02:56:12;;;;;;;0.00;0.00;;;;;;;;;;5069741;28;20028;-72
2021/06/03 02:58:37;;;;;;;0.00;0.00;;;;;;;;;;5062197;28;20028;-72
2021/06/03 03:01:03;;;;;;;0.00;0.00;;;;;;;;;;5086586;28;20583;-72
2021/06/03 03:03:28;;;;;;;0.00;0.00;;;;;;;;;;5077309;28;20069;-72
2021/06/03 03:05:54;;;;;;;0.00;0.00;;;;;;;;;;5069173;28;20112;-72
2021/06/03 03:08:19;;;;;;;0.00;0.00;;;;;;;;;;5063831;28;20353;-72
2021/06/03 03:10:45;;;;;;;0.00;0.00;;;;;;;;;;5059768;28;20273;-72
2021/06/03 03:13:10;;;;;;;0.00;0.00;;;;;;;;;;5094517;28;20768;-73
2021/06/03 03:15:36;;;;;;;0.00;0.00;;;;;;;;;;5094014;28;20029;-72
2021/06/03 03:18:01;;;;;;;0.00;0.00;;;;;;;;;;5056214;28;20020;-72
2021/06/03 03:20:27;;;;;;;0.00;0.00;;;;;;;;;;5076459;28;20072;-74
2021/06/03 03:22:53;;;;;;;0.00;0.00;;;;;;;;;;5073333;28;20540;-69
2021/06/03 03:25:18;;;;;;;0.00;0.00;;;;;;;;;;5080532;28;20084;-69
2021/06/03 03:27:44;;;;;;;0.00;0.00;;;;;;;;;;5072963;28;20106;-69
2021/06/03 03:30:09;;;;;;;0.00;0.00;;;;;;;;;;5070795;28;20384;-69
2021/06/03 03:32:34;;;;;;;0.00;0.00;;;;;;;;;;5094732;28;20456;-69
2021/06/03 03:35:00;;;;;;;0.00;0.00;;;;;;;;;;5052207;28;20488;-69
2021/06/03 03:37:26;;;;;;;0.00;0.00;;;;;;;;;;5076906;28;20103;-68
2021/06/03 03:39:51;;;;;;;0.00;0.00;;;;;;;;;;5068881;28;20110;-69
2021/06/03 03:42:16;;;;;;;0.00;0.00;;;;;;;;;;5096606;28;20121;-69
2021/06/03 03:44:41;;;;;;;0.00;0.00;;;;;;;;;;5100178;28;20075;-69
2021/06/03 03:47:07;;;;;;;0.00;0.00;;;;;;;;;;5061398;28;20320;-68
2021/06/03 03:49:32;;;;;;;0.00;0.00;;;;;;;;;;5059823;28;20015;-69
2021/06/03 03:52:00;;;;;;;0.00;0.00;;;;;;;;;;5101111;28;20023;-70
2021/06/03 03:54:25;;;;;;;0.00;0.00;;;;;;;;;;5104970;28;20518;-71
2021/06/03 03:56:50;;;;;;;0.00;0.00;;;;;;;;;;5106401;28;20122;-71
2021/06/03 03:59:15;;;;;;;0.00;0.00;;;;;;;;;;5087180;28;20272;-70
2021/06/03 04:01:40;;;;;;;0.00;0.00;;;;;;;;;;5086573;28;20677;-70
2021/06/03 04:04:06;;;;;;;0.00;0.00;;;;;;;;;;5071865;28;20285;-71
2021/06/03 04:06:31;;;;;;;0.00;0.00;;;;;;;;;;5095772;28;20258;-70
2021/06/03 04:08:56;;;;;;;0.00;0.00;;;;;;;;;;5097413;28;20646;-70
2021/06/03 04:11:24;;;;;;;0.00;0.00;;;;;;;;;;5095457;28;20491;-70
2021/06/03 04:13:50;;;;;;;0.00;0.00;;;;;;;;;;5096544;28;20496;-71
2021/06/03 04:16:15;;;;;;;0.00;0.00;;;;;;;;;;5080336;28;20019;-70
2021/06/03 04:18:40;;;;;;;0.00;0.00;;;;;;;;;;5095681;28;20024;-70
2021/06/03 04:21:06;;;;;;;0.00;0.00;;;;;;;;;;5097441;28;20022;-71
2021/06/03 04:23:31;;;;;;;0.00;0.00;;;;;;;;;;5080243;28;20478;-71
2021/06/03 04:25:56;;;;;;;0.00;0.00;;;;;;;;;;5097302;28;20039;-71
2021/06/03 04:28:21;;;;;;;0.00;0.00;;;;;;;;;;5096972;28;20254;-71
2021/06/03 04:30:46;;;;;;;0.00;0.00;;;;;;;;;;5097056;28;20024;-71
2021/06/03 04:33:12;;;;;;;0.00;0.00;;;;;;;;;;5096890;28;20258;-71
2021/06/03 04:35:37;;;;;;;0.00;0.00;;;;;;;;;;5093635;28;20111;-71
2021/06/03 04:38:03;;;;;;;0.00;0.00;;;;;;;;;;5096980;28;20028;-71
2021/06/03 04:40:28;;;;;;;0.00;0.00;;;;;;;;;;5096725;28;20020;-70
2021/06/03 04:42:53;;;;;;;0.00;0.00;;;;;;;;;;5102132;28;20020;-70
2021/06/03 04:45:19;;;;;;;0.00;0.00;;;;;;;;;;5097428;28;20016;-71
2021/06/03 04:47:44;;;;;;;0.00;0.00;;;;;;;;;;5078371;28;20048;-71
2021/06/03 04:50:10;;;;;;;0.00;0.00;;;;;;;;;;5096834;28;20020;-72
2021/06/03 04:52:36;;;;;;;0.00;0.00;;;;;;;;;;5082485;28;20051;-72
2021/06/03 04:55:03;;;;;;;0.00;0.00;;;;;;;;;;5096420;28;20058;-71
2021/06/03 04:57:28;;;;;;;0.00;0.00;;;;;;;;;;5095139;28;20030;-71
2021/06/03 04:59:53;;;;;;;0.00;0.00;;;;;;;;;;5096788;28;20392;-72
2021/06/03 05:02:20;;;;;;;0.00;0.00;;;;;;;;;;5114871;28;20018;-71
2021/06/03 05:04:46;;;;;;;0.00;0.00;;;;;;;;;;5090763;28;20036;-71
2021/06/03 05:07:11;;;;;;;0.00;0.00;;;;;;;;;;5095203;28;20020;-71
2021/06/03 05:09:37;;;;;;;0.00;0.00;;;;;;;;;;5085832;28;20770;-71
2021/06/03 05:12:03;;;;;;;0.00;0.00;;;;;;;;;;5066903;28;20274;-71
2021/06/03 05:14:28;;;;;;;0.00;0.00;;;;;;;;;;5063719;28;20031;-72
2021/06/03 05:16:53;;;;;;;0.00;0.00;;;;;;;;;;5092893;28;20035;-71
2021/06/03 05:19:18;;;;;;;0.00;0.00;;;;;;;;;;5063701;28;20766;-72
2021/06/03 05:21:43;;;;;;;0.00;0.00;;;;;;;;;;5085023;28;20338;-71
2021/06/03 05:24:08;;;;;;;0.00;0.00;;;;;;;;;;5061884;28;20259;-71
2021/06/03 05:26:34;;;;;;;0.00;0.00;;;;;;;;;;5083708;28;20329;-70
2021/06/03 05:28:59;;;;;;;0.00;0.00;;;;;;;;;;5059345;28;20266;-71
2021/06/03 05:31:24;;;;;;;0.00;0.00;;;;;;;;;;5047922;28;20258;-72
2021/06/03 05:33:49;;;;;;;0.00;0.00;;;;;;;;;;5095134;28;20269;-71
2021/06/03 05:36:14;;;;;;;0.00;0.00;;;;;;;;;;5084923;28;20369;-71
2021/06/03 05:38:39;;;;;;;0.00;0.00;;;;;;;;;;5058600;28;20311;-71
2021/06/03 05:41:05;;;;;;;0.00;0.00;;;;;;;;;;5061657;28;20294;-72
2021/06/03 05:43:30;;;;;;;0.00;0.00;;;;;;;;;;5082276;28;20285;-74
2021/06/03 05:45:55;;;;;;;0.00;0.00;;;;;;;;;;5097809;28;20036;-75
2021/06/03 05:48:20;;;;;;;0.00;0.00;;;;;;;;;;5094131;28;20035;-73
2021/06/03 05:50:45;;;;;;;0.00;0.00;;;;;;;;;;5057672;28;20263;-71
2021/06/03 05:53:11;;;;;;;0.00;0.00;;;;;;;;;;5078461;28;20469;-71
2021/06/03 05:55:36;;;;;;;0.00;0.00;;;;;;;;;;5055527;28;20039;-71
2021/06/03 05:58:01;;;;;;;0.00;0.00;;;;;;;;;;5064588;28;20277;-71
2021/06/03 06:00:30;;;;;;;0.00;0.00;;;;;;;;;;5058048;28;20784;-71
2021/06/03 06:02:58;;;;;;;0.00;0.00;;;;;;;;;;5072346;28;20293;-71
2021/06/03 06:08:07;;;;;;;0.00;0.00;;;;;;;;;;5074435;28;20396;-71
2021/06/03 06:10:32;;;;;;;0.00;0.00;;;;;;;;;;5065191;28;20016;-71
2021/06/03 06:12:58;;;;;;;0.00;0.00;;;;;;;;;;5065916;28;20031;-71
2021/06/03 06:15:23;;;;;;;0.00;0.00;;;;;;;;;;5052738;28;20024;-71
2021/06/03 06:17:48;;;;;;;0.00;0.00;;;;;;;;;;5056084;28;20027;-71
2021/06/03 06:20:14;;;;;;;0.00;0.00;;;;;;;;;;5083054;28;20020;-71
2021/06/03 06:22:40;;;;;;;0.00;0.00;;;;;;;;;;5086054;28;20762;-71
2021/06/03 06:25:06;;;;;;;0.00;0.00;;;;;;;;;;5075330;28;20020;-71
2021/06/03 06:27:31;;;;;;;0.00;0.00;;;;;;;;;;5074257;28;20031;-71
2021/06/03 06:29:56;;;;;;;0.00;0.00;;;;;;;;;;5057982;28;20111;-72
2021/06/03 06:32:22;;;;;;;0.00;0.00;;;;;;;;;;5074343;28;20685;-71
2021/06/03 06:34:49;;;;;;;0.00;0.00;;;;;;;;;;5073436;28;20039;-71
2021/06/03 06:37:14;;;;;;;0.00;0.00;;;;;;;;;;5067190;28;20262;-71
2021/06/03 06:39:40;;;;;;;0.00;0.00;;;;;;;;;;5057858;28;20429;-72
2021/06/03 06:42:05;;;;;;;0.00;0.00;;;;;;;;;;5074148;28;20278;-71
2021/06/03 06:44:30;;;;;;;0.00;0.00;;;;;;;;;;5070447;28;20073;-72
2021/06/03 06:46:55;;;;;;;0.00;0.00;;;;;;;;;;5063027;28;20023;-71
2021/06/03 06:49:21;;;;;;;0.00;0.00;;;;;;;;;;5047341;28;20813;-72
2021/06/03 06:51:46;;;;;;;0.00;0.00;;;;;;;;;;5066806;28;20279;-71
2021/06/03 06:54:12;;;;;;;0.00;0.00;;;;;;;;;;5066970;28;20029;-70
2021/06/03 06:56:37;;;;;;;0.00;0.00;;;;;;;;;;5071580;28;20027;-71
2021/06/03 06:59:02;;;;;;;0.00;0.00;;;;;;;;;;5053985;28;20828;-72
2021/06/03 07:01:27;;;;;;;0.00;0.00;;;;;;;;;;5052231;28;20770;-72
2021/06/03 07:03:52;;;;;;;0.00;0.00;;;;;;;;;;5071013;28;20270;-73
2021/06/03 07:06:17;;;;;;;0.00;0.00;;;;;;;;;;5099561;28;20253;-72
2021/06/03 07:08:43;;;;;;;0.00;0.00;;;;;;;;;;5059468;28;20073;-72
2021/06/03 07:11:08;;;;;;;0.00;0.00;;;;;;;;;;5105302;28;20016;-72
2021/06/03 07:13:33;;;;;;;0.00;0.00;;;;;;;;;;5073855;28;20028;-72
2021/06/03 07:15:58;;;;;;;0.00;0.00;;;;;;;;;;5105638;28;20042;-71
2021/06/03 07:18:24;;;;;;;0.00;0.00;;;;;;;;;;5060816;28;20505;-71
2021/06/03 07:20:49;;;;;;;0.00;0.00;;;;;;;;;;5088439;28;20358;-71
2021/06/03 07:23:14;;;;;;;0.00;0.00;;;;;;;;;;5070078;28;20270;-72
2021/06/03 07:25:40;;;;;;;0.00;0.00;;;;;;;;;;5078303;28;20035;-72
2021/06/03 07:28:06;;;;;;;0.00;0.00;;;;;;;;;;5090201;28;20322;-72
2021/06/03 07:30:31;;;;;;;0.00;0.00;;;;;;;;;;5087138;28;20091;-72
2021/06/03 07:32:57;;;;;;;0.00;0.00;;;;;;;;;;5067488;28;20031;-72
2021/06/03 07:35:22;;;;;;;0.00;0.00;;;;;;;;;;5070459;28;20300;-72
2021/06/03 07:37:48;;;;;;;0.00;0.00;;;;;;;;;;5060919;28;20032;-72
2021/06/03 07:40:14;;;;;;;0.00;0.00;;;;;;;;;;5080939;28;20051;-72
2021/06/03 07:42:40;;;;;;;0.00;0.00;;;;;;;;;;5061517;28;20024;-73
2021/06/03 07:45:08;;;;;;;0.00;0.00;;;;;;;;;;5079902;28;20361;-72
2021/06/03 07:47:34;;;;;;;0.00;0.00;;;;;;;;;;5078499;28;20031;-72
2021/06/03 07:49:59;;;;;;;0.00;0.00;;;;;;;;;;5089700;28;20020;-72
2021/06/03 07:52:24;;;;;;;0.00;0.00;;;;;;;;;;5082717;28;20099;-72
2021/06/03 07:54:49;;;;;;;0.00;0.00;;;;;;;;;;5080440;28;20055;-72
2021/06/03 07:57:14;;;;;;;0.00;0.00;;;;;;;;;;5066181;28;20023;-72
2021/06/03 07:59:40;;;;;;;0.00;0.00;;;;;;;;;;5107052;28;20348;-72
2021/06/03 08:02:05;;;;;;;0.00;0.00;;;;;;;;;;5090897;28;20050;-72
2021/06/03 08:04:30;;;;;;;0.00;0.00;;;;;;;;;;5068750;28;20050;-71
2021/06/03 08:06:55;;;;;;;0.00;0.00;;;;;;;;;;5080429;28;20026;-71
2021/06/03 08:09:20;;;;;;;0.00;0.00;;;;;;;;;;5056711;28;20012;-71
2021/06/03 08:11:46;;;;;;;0.00;0.00;;;;;;;;;;5071409;28;20263;-72
2021/06/03 08:14:11;;;;;;;0.00;0.00;;;;;;;;;;5060218;28;20286;-71
2021/06/03 08:16:37;;;;;;;0.00;0.00;;;;;;;;;;5072155;28;20020;-72
2021/06/03 08:19:02;;;;;;;0.00;0.00;;;;;;;;;;5061996;28;20552;-72
2021/06/03 08:21:27;;;;;;;0.00;0.00;;;;;;;;;;5097423;28;20272;-72
2021/06/03 08:23:54;;;;;;;0.00;0.00;;;;;;;;;;5084398;28;20034;-72
2021/06/03 08:26:20;;;;;;;0.00;0.00;;;;;;;;;;5084302;28;20012;-73
2021/06/03 08:28:45;;;;;;;0.00;0.00;;;;;;;;;;5101321;28;20016;-72
2021/06/03 08:31:11;;;;;;;0.00;0.00;;;;;;;;;;5087842;28;20027;-73
2021/06/03 08:33:37;;;;;;;0.00;0.00;;;;;;;;;;5071343;28;20273;-72
2021/06/03 08:36:03;;;;;;;0.00;0.00;;;;;;;;;;5084978;28;20362;-73
2021/06/03 08:38:28;;;;;;;0.00;0.00;;;;;;;;;;5069923;28;20059;-73
2021/06/03 08:40:56;;;;;;;0.00;0.00;;;;;;;;;;5085984;28;20848;-73
2021/06/03 08:43:21;;;;;;;0.00;0.00;;;;;;;;;;5084123;28;20024;-73
2021/06/03 08:45:47;;;;;;;0.00;0.00;;;;;;;;;;5084683;28;20020;-73
2021/06/03 08:48:12;;;;;;;0.00;0.00;;;;;;;;;;5069075;28;20020;-73
2021/06/03 08:50:38;;;;;;;0.00;0.00;;;;;;;;;;5084483;28;20100;-72
2021/06/03 08:53:04;;;;;;;0.00;0.00;;;;;;;;;;5069392;28;20026;-73
2021/06/03 08:58:13;;;;;;;0.00;0.00;;;;;;;;;;5094162;28;20027;-72
2021/06/03 09:00:39;;;;;;;0.00;0.00;;;;;;;;;;5059581;28;20031;-72
2021/06/03 09:03:04;;;;;;;0.00;0.00;;;;;;;;;;5085568;28;20027;-74
2021/06/03 09:05:29;;;;;;;0.00;0.00;;;;;;;;;;5076560;28;20513;-73
2021/06/03 09:07:55;;;;;;;0.00;0.00;;;;;;;;;;5075268;28;20027;-73
2021/06/03 09:10:27;;;;;;;0.00;0.00;;;;;;;;;;5069613;28;20592;-73
2021/06/03 09:13:05;;;;;;;0.00;0.00;;;;;;;;;;5060439;28;20106;-75
2021/06/03 09:15:30;;;;;;;0.00;0.00;;;;;;;;;;5074536;28;20021;-74
2021/06/03 09:17:55;;;;;;;0.00;0.00;;;;;;;;;;5073759;28;20547;-74
2021/06/03 09:20:25;;;;;;;0.00;0.00;;;;;;;;;;5077849;28;20389;-73
2021/06/03 09:22:53;;;;;;;0.00;0.00;;;;;;;;;;5059630;28;20476;-74
2021/06/03 09:25:30;;;;;;;0.00;0.00;;;;;;;;;;5048533;28;20027;-73
2021/06/03 09:27:56;;;;;;;0.00;0.00;;;;;;;;;;5067612;28;20016;-73
2021/06/03 09:30:21;;;;;;;0.00;0.00;;;;;;;;;;5052391;28;20026;-70
2021/06/03 09:32:53;;;;;;;0.00;0.00;;;;;;;;;;5073957;28;20405;-70
2021/06/03 09:35:18;;;;;;;0.00;0.00;;;;;;;;;;5046772;28;20028;-70
2021/06/03 09:37:44;;;;;;;0.00;0.00;;;;;;;;;;5057396;28;20492;-70
2021/06/03 09:40:19;;;;;;;0.00;0.00;;;;;;;;;;5071543;28;20138;-70
2021/06/03 09:43:03;;;;;;;0.00;0.00;;;;;;;;;;5072762;28;20103;-70
2021/06/03 09:45:31;;;;;;;0.00;0.00;;;;;;;;;;5081825;28;20024;-69
2021/06/03 09:47:56;;;;;;;0.00;0.00;;;;;;;;;;5066496;28;20609;-71
2021/06/03 09:50:22;;;;;;;0.00;0.00;;;;;;;;;;5053418;28;20024;-70
2021/06/03 09:52:48;;;;;;;0.00;0.00;;;;;;;;;;5068253;28;20050;-70
2021/06/03 09:55:13;;;;;;;0.00;0.00;;;;;;;;;;5074460;28;20055;-70
2021/06/03 09:57:39;;;;;;;0.00;0.00;;;;;;;;;;5093479;28;20032;-70
2021/06/03 10:00:23;;;;;;;0.00;0.00;;;;;;;;;;5059037;28;20017;-71
2021/06/03 10:02:52;;;;;;;0.00;0.00;;;;;;;;;;5069897;28;20019;-70
2021/06/03 10:05:17;;;;;;;0.00;0.00;;;;;;;;;;5089908;28;20044;-70
2021/06/03 10:08:04;;;;;;;0.00;0.00;;;;;;;;;;5092111;28;20008;-70
2021/06/03 10:10:30;;;;;;;0.00;0.00;;;;;;;;;;5084444;28;20028;-70
2021/06/03 10:12:55;;;;;;;0.00;0.00;;;;;;;;;;5085105;28;20445;-70
2021/06/03 10:15:21;;;;;;;0.00;0.00;;;;;;;;;;5061554;28;20085;-70
2021/06/03 10:17:47;;;;;;;0.00;0.00;;;;;;;;;;5103902;28;20032;-71
2021/06/03 10:20:14;;;;;;;0.00;0.00;;;;;;;;;;5085092;28;20023;-70
2021/06/03 10:22:40;;;;;;;0.00;0.00;;;;;;;;;;5072378;28;20103;-71
2021/06/03 10:25:08;;;;;;;0.00;0.00;;;;;;;;;;5068034;28;20475;-70
2021/06/03 10:27:38;;;;;;;0.00;0.00;;;;;;;;;;5101297;28;20467;-70
2021/06/03 10:30:05;;;;;;;0.00;0.00;;;;;;;;;;5080051;28;20066;-70
2021/06/03 10:32:30;;;;;;;0.00;0.00;;;;;;;;;;5071027;28;20083;-70
2021/06/03 10:34:56;;;;;;;0.00;0.00;;;;;;;;;;5083858;28;20080;-70
2021/06/03 10:37:22;;;;;;;0.00;0.00;;;;;;;;;;5085204;28;20012;-70
2021/06/03 10:39:47;;;;;;;0.00;0.00;;;;;;;;;;5088767;28;20349;-70
2021/06/03 10:42:13;;;;;;;0.00;0.00;;;;;;;;;;5091938;28;20043;-70
2021/06/03 10:44:39;;;;;;;0.00;0.00;;;;;;;;;;5065293;28;20027;-70
2021/06/03 10:47:05;;;;;;;0.00;0.00;;;;;;;;;;5067139;28;20077;-71
2021/06/03 10:49:31;;;;;;;0.00;0.00;;;;;;;;;;5082444;28;20037;-70
2021/06/03 10:51:57;;;;;;;0.00;0.00;;;;;;;;;;5085446;28;20059;-74
2021/06/03 10:54:37;;;;;;;0.00;0.00;;;;;;;;;;5074412;28;20076;-74
2021/06/03 10:57:02;;;;;;;0.00;0.00;;;;;;;;;;5079185;28;20023;-73
2021/06/03 10:59:27;;;;;;;0.00;0.00;;;;;;;;;;5088562;28;20031;-71
2021/06/03 11:01:55;;;;;;;0.00;0.00;;;;;;;;;;5092077;28;20023;-70
2021/06/03 11:04:27;;;;;;;0.00;0.00;;;;;;;;;;5111170;28;20123;-70
2021/06/03 11:06:52;;;;;;;0.00;0.00;;;;;;;;;;5061532;28;20112;-70
2021/06/03 11:09:22;;;;;;;0.13;0.00;;;;;;;;;;5044520;28;20107;-71
2021/06/03 11:11:49;;;;;;;0.00;0.00;;;;;;;;;;5069291;28;20016;-70
2021/06/03 11:14:16;;;;;;;0.00;0.00;;;;;;;;;;5058663;28;20021;-70
2021/06/03 11:16:42;;;;;;;0.00;0.00;;;;;;;;;;5050878;28;20021;-70
2021/06/03 11:19:08;;;;;;;0.00;0.00;;;;;;;;;;5052642;28;20026;-71
2021/06/03 11:21:34;;;;;;;0.00;0.00;;;;;;;;;;5071074;28;20044;-69
2021/06/03 11:24:00;;;;;;;0.00;0.00;;;;;;;;;;5079962;28;20054;-70
2021/06/03 11:26:40;;;;;;;0.00;0.00;;;;;;;;;;5068332;28;20020;-69
2021/06/03 11:29:09;;;;;;;0.00;0.00;;;;;;;;;;5078482;28;20095;-69
2021/06/03 11:31:34;;;;;;;0.00;0.00;;;;;;;;;;5056864;28;20123;-69
2021/06/03 11:34:11;;;;;;;0.00;0.00;;;;;;;;;;5079371;28;20111;-70
2021/06/03 11:36:37;;;;;;;0.00;0.00;;;;;;;;;;5088822;28;20093;-70
2021/06/03 11:39:03;;;;;;;0.00;0.00;;;;;;;;;;5069487;28;20036;-69
2021/06/03 11:41:38;;;;;;;0.00;0.00;;;;;;;;;;5077920;28;20024;-70
2021/06/03 11:44:07;;;;;;;0.00;0.00;;;;;;;;;;5052389;28;20143;-70
2021/06/03 11:46:52;;;;;;;0.00;0.00;;;;;;;;;;5084297;28;20023;-70
2021/06/03 11:49:32;;;;;;;0.00;0.00;;;;;;;;;;5077836;28;20071;-70
2021/06/03 11:52:07;;;;;;;0.00;0.00;;;;;;;;;;5088970;28;20111;-71
2021/06/03 11:54:52;;;;;;;0.00;0.00;;;;;;;;;;5069365;28;20033;-70
2021/06/03 11:57:17;;;;;;;0.00;0.00;;;;;;;;;;5079438;28;20024;-70
2021/06/03 11:59:57;;;;;;;0.00;0.00;;;;;;;;;;5089103;28;20023;-70
2021/06/03 12:02:32;;;;;;;0.00;0.00;;;;;;;;;;5080420;28;20076;-69
2021/06/03 12:05:13;;;;;;;0.00;0.00;;;;;;;;;;5062962;28;20048;-70
2021/06/03 12:07:51;;;;;;;0.00;0.00;;;;;;;;;;5085895;28;20437;-69
2021/06/03 12:10:17;;;;;;;0.00;0.00;;;;;;;;;;5086536;28;20032;-70
2021/06/03 12:12:42;;;;;;;0.00;0.00;;;;;;;;;;5075270;28;20853;-70
2021/06/03 12:15:18;;;;;;;0.00;0.00;;;;;;;;;;5085528;28;20049;-70
2021/06/03 12:17:43;;;;;;;0.00;0.00;;;;;;;;;;5073890;28;20120;-70
2021/06/03 12:20:10;;;;;;;0.00;0.00;;;;;;;;;;5072471;28;20020;-70
2021/06/03 12:22:35;;;;;;;0.00;0.00;;;;;;;;;;5091948;28;20102;-71
2021/06/03 12:25:00;;;;;;;0.00;0.00;;;;;;;;;;5073675;28;20111;-69
2021/06/03 12:27:28;;;;;;;0.00;0.00;;;;;;;;;;5073779;28;20448;-69
2021/06/03 12:29:53;;;;;;;0.00;0.00;;;;;;;;;;5074222;28;20032;-70
2021/06/03 12:32:19;;;;;;;0.00;0.00;;;;;;;;;;5089887;28;20039;-69
2021/06/03 12:34:44;;;;;;;0.00;0.00;;;;;;;;;;5092349;28;20021;-70
2021/06/03 12:37:20;;;;;;;0.00;0.00;;;;;;;;;;5088069;28;20035;-70
2021/06/03 12:39:45;;;;;;;0.00;0.00;;;;;;;;;;5090490;28;20027;-70
2021/06/03 12:42:10;;;;;;;0.00;0.00;;;;;;;;;;5089791;28;20518;-69
2021/06/03 12:44:35;;;;;;;0.00;0.00;;;;;;;;;;5089959;28;20016;-70
2021/06/03 12:47:05;;;;;;;0.00;0.00;;;;;;;;;;5070509;28;20028;-70
2021/06/03 12:49:31;;;;;;;0.00;0.00;;;;;;;;;;5083293;28;20070;-70
2021/06/03 12:51:56;;;;;;;0.00;0.00;;;;;;;;;;5068424;28;20024;-70
2021/06/03 12:54:54;;;;;;;0.00;0.00;;;;;;;;;;5082987;28;20012;-69
2021/06/03 12:57:20;;;;;;;0.00;0.00;;;;;;;;;;5074957;28;20036;-70
2021/06/03 12:59:46;;;;;;;0.00;0.00;;;;;;;;;;5069779;28;20024;-69
2021/06/03 13:02:15;;;;;;;0.00;0.00;;;;;;;;;;5068362;28;20016;-69
2021/06/03 13:04:41;;;;;;;0.00;0.00;;;;;;;;;;5076572;28;20032;-69
2021/06/03 13:07:07;;;;;;;0.00;0.00;;;;;;;;;;5048932;28;20464;-69
2021/06/03 13:09:32;;;;;;;0.00;0.00;;;;;;;;;;5054489;28;20080;-70
2021/06/03 13:12:04;;;;;;;0.00;0.00;;;;;;;;;;5063757;28;20012;-69
2021/06/03 13:14:35;;;;;;;0.00;0.00;;;;;;;;;;5072844;28;20016;-70
2021/06/03 13:17:04;;;;;;;0.13;0.00;;;;;;;;;;5052783;28;20032;-69
2021/06/03 13:19:30;;;;;;;0.00;0.00;;;;;;;;;;5081374;28;20037;-70
2021/06/03 13:21:56;;;;;;;0.00;0.00;;;;;;;;;;5052026;28;20020;-70
2021/06/03 13:24:22;;;;;;;0.00;0.00;;;;;;;;;;5063510;28;20039;-70
2021/06/03 13:26:47;;;;;;;0.00;0.00;;;;;;;;;;5079055;28;20063;-69
2021/06/03 13:29:12;;;;;;;0.00;0.00;;;;;;;;;;5050492;28;20282;-68
2021/06/03 13:31:40;;;;;;;0.00;0.00;;;;;;;;;;5067607;28;20046;-69
2021/06/03 13:34:26;;;;;;;0.00;0.00;;;;;;;;;;5056007;28;20039;-69
2021/06/03 13:37:01;;;;;;;0.00;0.00;;;;;;;;;;5085063;28;20028;-70
2021/06/03 13:39:28;;;;;;;0.00;0.00;;;;;;;;;;5042105;28;20020;-70
2021/06/03 13:41:56;;;;;;;0.00;0.00;;;;;;;;;;5073590;28;20412;-69
2021/06/03 13:44:21;;;;;;;0.00;0.00;;;;;;;;;;5088657;28;20016;-70
2021/06/03 13:46:47;;;;;;;0.00;0.00;;;;;;;;;;5066378;28;20027;-69
2021/06/03 13:49:22;;;;;;;0.00;0.00;;;;;;;;;;5049423;28;20058;-70
2021/06/03 13:51:56;;;;;;;0.00;0.00;;;;;;;;;;5056734;28;20558;-70
2021/06/03 13:54:21;;;;;;;0.00;0.00;;;;;;;;;;5064956;28;20358;-70
2021/06/03 13:56:49;;;;;;;0.00;0.00;;;;;;;;;;5080598;28;20020;-70
2021/06/03 13:59:15;;;;;;;0.00;0.00;;;;;;;;;;5055442;28;20030;-69
2021/06/03 14:01:44;;;;;;;0.00;0.00;;;;;;;;;;5064219;28;20111;-70
2021/06/03 14:04:09;;;;;;;0.00;0.00;;;;;;;;;;5081111;28;20274;-69
2021/06/03 14:06:36;;;;;;;0.00;0.00;;;;;;;;;;5051962;28;20531;-69
2021/06/03 14:09:02;;;;;;;0.00;0.00;;;;;;;;;;5088098;28;20016;-69
2021/06/03 14:12:23;;;;;;;0.00;0.00;;;;;;;;;;5056504;28;20028;-69
2021/06/03 14:14:28;;;;;;;0.00;0.00;;;;;;;;;;5080880;28;20114;-69
2021/06/03 14:17:09;;;;;;;0.00;0.00;;;;;;;;;;5073595;28;20531;-69
2021/06/03 14:19:37;;;;;;;0.00;0.00;;;;;;;;;;5072968;28;20393;-69
2021/06/03 14:22:08;;;;;;;0.00;0.00;;;;;;;;;;5073832;28;20549;-70
2021/06/03 14:24:34;;;;;;;0.00;0.00;;;;;;;;;;5073696;28;20077;-70
2021/06/03 14:27:12;;;;;;;0.00;0.00;;;;;;;;;;5076143;28;20016;-70
2021/06/03 14:29:44;;;;;;;0.00;0.00;;;;;;;;;;5097673;28;20483;-70
2021/06/03 14:32:10;;;;;;;0.00;0.00;;;;;;;;;;5099900;28;20035;-70
2021/06/03 14:34:36;;;;;;;0.00;0.00;;;;;;;;;;5064223;28;20395;-70
2021/06/03 14:37:02;;;;;;;0.00;0.00;;;;;;;;;;5063345;28;20120;-69
2021/06/03 14:39:46;;;;;;;0.00;0.00;;;;;;;;;;5064285;28;20281;-70
2021/06/03 14:42:41;;;;;;;0.00;0.00;;;;;;;;;;5097520;28;20449;-70
2021/06/03 14:45:12;;;;;;;0.00;0.00;;;;;;;;;;5079978;28;20092;-69
2021/06/03 14:47:37;;;;;;;0.00;0.00;;;;;;;;;;5072287;28;20081;-69